Time;durP1;ratioP1;P1;durP2;ratioP2;P2;SDS_P1;SDS_P2;PMS_P1;PMS_P2;Temp;Humidity;BMP_temperature;BMP_pressure;BME280_temperature;BME280_humidity;BME280_pressure;Samples;Min_cycle;Max_cycle;Signal;HPM_P1;HPM_P2
2023/10/19 00:03:37;;;;;;;;;;;11.00;49.80;;;9.73;53.47;100214.78;12247973;19;19917;-83
2023/10/19 00:07:40;;;;;;;;;;;11.10;49.80;;;9.72;53.53;100197.47;12240731;19;19931;-83
2023/10/19 00:11:42;;;;;;;;;;;11.00;49.70;;;9.66;53.55;100195.22;12248786;19;19926;-83
2023/10/19 00:15:48;;;;;;;;;;;11.00;49.70;;;9.78;53.40;100200.66;12246073;19;20286;-83
2023/10/19 00:24:10;;;;;;;;;;;11.00;49.70;;;9.75;53.48;100192.06;12246679;19;19933;-83
2023/10/19 00:28:14;;;;;;;;;;;11.10;50.00;;;9.72;53.43;100197.47;12243489;19;19919;-83
2023/10/19 00:32:17;;;;;;;;;;;11.10;49.70;;;9.77;53.42;100196.34;12242774;19;19930;-83
2023/10/19 00:36:20;;;;;;;;;;;11.10;49.70;;;9.72;53.49;100174.00;12245184;19;19926;-83
2023/10/19 00:40:34;;;;;;;;;;;11.00;49.60;;;9.65;53.46;100149.22;12240273;19;19931;-83
2023/10/19 00:44:38;;;;;;;;;;;11.10;49.70;;;9.77;53.47;100159.84;12244959;19;19922;-84
2023/10/19 00:48:40;;;;;;;;;;;11.10;49.70;;;9.75;53.50;100139.94;12241941;19;20317;-83
2023/10/19 00:52:51;;;;;;;;;;;11.00;49.70;;;9.56;53.52;100117.66;12244240;19;19932;-83
2023/10/19 00:56:58;;;;;;;;;;;11.20;49.80;;;9.68;53.46;100122.97;12242441;19;19911;-83
2023/10/19 01:01:00;;;;;;;;;;;11.00;49.70;;;9.47;53.47;100082.56;12240285;19;19941;-83
2023/10/19 01:05:05;;;;;;;;;;;11.00;49.70;;;9.64;53.55;100097.19;12243923;19;19911;-83
2023/10/19 01:09:07;;;;;;;;;;;11.00;49.70;;;9.57;53.27;100088.91;12242185;19;20238;-83
2023/10/19 01:13:09;;;;;;;;;;;11.00;49.70;;;9.68;53.55;100102.13;12242511;19;19926;-83
2023/10/19 01:17:11;;;;;;;;;;;11.00;49.70;;;9.57;53.47;100075.03;12242167;19;20378;-83
2023/10/19 01:21:18;;;;;;;;;;;11.00;49.70;;;9.66;53.39;100077.91;12237985;19;19922;-83
2023/10/19 01:25:33;;;;;;;;;;;11.00;49.70;;;9.68;53.50;100077.81;12241886;19;19970;-83
2023/10/19 01:29:37;;;;;;;;;;;11.00;49.70;;;9.79;53.45;100092.81;12238152;19;19915;-83
2023/10/19 01:33:40;;;;;;;;;;;11.30;49.90;;;9.49;53.54;100046.84;12243469;19;19927;-83
2023/10/19 01:37:41;;;;;;;;;;;11.00;49.70;;;9.69;53.49;100067.31;12236602;19;20353;-83
2023/10/19 01:41:43;;;;;;;;;;;11.10;49.70;;;9.72;53.61;100058.44;12246114;19;19918;-83
2023/10/19 01:45:44;;;;;;;;;;;11.00;49.70;;;9.73;53.54;100055.75;12252963;19;20474;-83
2023/10/19 01:49:52;;;;;;;;;;;11.10;49.80;;;9.69;53.48;100038.63;12250928;19;20328;-83
2023/10/19 01:54:00;;;;;;;;;;;11.00;49.70;;;9.48;53.52;100001.72;12247651;19;20267;-84
2023/10/19 01:58:03;;;;;;;;;;;11.10;49.70;;;9.69;53.48;100041.25;12251021;19;20389;-83
2023/10/19 02:02:04;;;;;;;;;;;11.00;49.90;;;9.73;53.46;100041.88;12252336;19;19926;-83
2023/10/19 02:06:19;;;;;;;;;;;11.00;49.80;;;9.71;53.44;100021.09;12251984;19;19928;-84
2023/10/19 02:10:22;;;;;;;;;;;11.00;49.80;;;9.68;53.41;100005.66;12249348;19;19911;-84
2023/10/19 02:14:31;;;;;;;;;;;11.00;49.70;;;9.67;53.52;100011.81;12251749;19;19941;-84
2023/10/19 02:18:34;;;;;;;;;;;11.00;49.80;;;9.67;53.60;100004.00;12251110;19;19921;-84
2023/10/19 02:22:36;;;;;;;;;;;11.00;49.70;;;9.70;53.57;100010.78;12252625;19;19932;-83
2023/10/19 02:26:38;;;;;;;;;;;11.00;49.70;;;9.70;53.45;100016.00;12250820;19;19922;-83
2023/10/19 02:30:42;;;;;;;;;;;11.00;49.70;;;9.37;53.48;99945.97;12248648;19;19934;-83
2023/10/19 02:34:43;;;;;;;;;;;11.00;49.80;;;9.70;53.66;99992.53;12251908;19;19946;-83
2023/10/19 02:38:50;;;;;;;;;;;11.00;49.80;;;9.62;53.51;99972.16;12252396;19;19974;-82
2023/10/19 02:42:53;;;;;;;;;;;11.00;49.80;;;9.68;53.60;99968.34;12251005;19;19936;-84
2023/10/19 02:47:08;;;;;;;;;;;11.20;49.90;;;9.53;53.64;99954.47;12249077;19;20261;-84
2023/10/19 02:51:11;;;;;;;;;;;11.00;49.90;;;9.64;53.55;99954.66;12245874;19;20328;-84
2023/10/19 02:55:14;;;;;;;;;;;11.00;49.80;;;9.67;53.44;99957.06;12248756;19;19914;-84
2023/10/19 02:59:24;;;;;;;;;;;10.90;49.90;;;9.58;53.68;99931.56;12248672;19;19907;-84
2023/10/19 03:03:26;;;;;;;;;;;10.90;49.90;;;9.64;53.44;99941.63;12249107;19;19919;-84
2023/10/19 03:07:28;;;;;;;;;;;10.90;49.80;;;9.66;53.46;99939.75;12248193;19;19927;-84
2023/10/19 03:11:33;;;;;;;;;;;11.10;49.90;;;9.68;53.47;99935.28;12249496;19;20338;-83
2023/10/19 03:15:35;;;;;;;;;;;11.00;49.90;;;9.61;53.51;99913.13;12248401;19;19918;-82
2023/10/19 03:19:36;;;;;;;;;;;11.00;49.90;;;9.63;53.52;99913.88;12246170;19;20277;-84
2023/10/19 03:23:40;;;;;;;;;;;11.00;49.80;;;9.58;53.63;99908.13;12249945;19;19918;-83
2023/10/19 03:27:44;;;;;;;;;;;11.00;50.00;;;9.64;53.48;99912.97;12247962;19;19938;-84
2023/10/19 03:31:47;;;;;;;;;;;11.00;50.00;;;9.63;53.53;99907.81;12249777;19;19911;-84
2023/10/19 03:35:49;;;;;;;;;;;11.00;50.00;;;9.61;53.48;99891.44;12246331;19;19927;-84
2023/10/19 03:39:51;;;;;;;;;;;11.20;49.90;;;9.72;53.54;99904.63;12246584;19;19919;-83
2023/10/19 03:43:54;;;;;;;;;;;11.00;50.00;;;9.72;53.50;99900.25;12247573;19;20270;-84
2023/10/19 03:48:00;;;;;;;;;;;11.00;49.90;;;9.66;53.51;99885.00;12245231;19;19930;-83
2023/10/19 03:56:12;;;;;;;;;;;11.00;50.10;;;9.61;53.75;99867.97;12245314;19;19990;-83
2023/10/19 04:00:19;;;;;;;;;;;11.00;49.90;;;9.67;53.76;99865.84;12242474;19;20343;-83
2023/10/19 04:04:21;;;;;;;;;;;11.00;50.10;;;9.60;53.67;99855.91;12238223;19;20020;-83
2023/10/19 04:08:26;;;;;;;;;;;11.00;50.10;;;9.44;53.56;99817.78;12242997;19;19923;-83
2023/10/19 04:12:31;;;;;;;;;;;11.00;50.00;;;9.71;53.60;99856.84;12245772;19;19918;-83
2023/10/19 04:16:37;;;;;;;;;;;11.20;50.00;;;9.40;53.58;99812.91;12247333;19;19921;-83
2023/10/19 04:21:12;;;;;;;;;;;11.00;49.90;;;9.62;53.70;99834.00;12241913;19;19947;-83
2023/10/19 04:25:08;;;;;;;;;;;11.00;50.00;;;9.72;53.66;99849.88;12242496;19;19919;-83
2023/10/19 04:29:17;;;;;;;;;;;11.00;50.00;;;9.75;53.62;99847.09;12234713;19;20337;-83
2023/10/19 04:33:19;;;;;;;;;;;11.00;50.00;;;9.72;53.63;99842.91;12240649;19;19921;-84
2023/10/19 04:37:23;;;;;;;;;;;11.00;50.10;;;9.69;53.72;99827.47;12242803;19;19914;-83
2023/10/19 04:41:27;;;;;;;;;;;11.00;50.00;;;9.61;53.78;99808.88;12244848;19;19984;-84
2023/10/19 04:45:29;;;;;;;;;;;10.90;50.00;;;9.67;53.57;99811.09;12244566;19;20315;-84
2023/10/19 04:49:31;;;;;;;;;;;11.00;50.00;;;9.74;53.65;99817.53;12241635;19;20222;-83
2023/10/19 04:53:33;;;;;;;;;;;11.00;50.50;;;9.68;53.68;99807.53;12243490;19;19981;-84
2023/10/19 04:57:34;;;;;;;;;;;11.10;50.00;;;9.53;53.56;99785.94;12241149;19;19919;-83
2023/10/19 05:01:37;;;;;;;;;;;11.00;49.90;;;9.52;53.54;99770.38;12243329;19;19914;-83
2023/10/19 05:05:38;;;;;;;;;;;11.00;50.10;;;9.66;53.79;99793.75;12241554;19;19915;-83
2023/10/19 05:09:40;;;;;;;;;;;11.00;50.10;;;9.50;53.77;99773.13;12239982;19;19923;-83
2023/10/19 05:13:42;;;;;;;;;;;11.00;50.10;;;9.72;53.82;99808.16;12242930;19;19923;-83
2023/10/19 05:17:43;;;;;;;;;;;11.00;50.00;;;9.64;53.78;99795.66;12248462;19;19918;-83
2023/10/19 05:21:45;;;;;;;;;;;11.00;50.00;;;9.73;53.70;99802.84;12255172;19;19922;-83
2023/10/19 05:25:46;;;;;;;;;;;11.00;50.10;;;9.71;53.84;99794.28;12255633;19;19923;-83
2023/10/19 05:29:48;;;;;;;;;;;11.00;50.00;;;9.72;53.58;99782.09;12252245;19;19926;-83
2023/10/19 05:33:49;;;;;;;;;;;11.00;50.00;;;9.50;53.65;99738.38;12252955;19;20250;-84
2023/10/19 05:37:51;;;;;;;;;;;11.00;50.20;;;9.62;53.78;99758.41;12252788;19;19931;-83
2023/10/19 05:41:57;;;;;;;;;;;11.00;50.00;;;9.69;53.62;99770.13;12254371;19;19915;-83
2023/10/19 05:46:00;;;;;;;;;;;11.00;50.10;;;9.66;53.85;99778.13;12258819;19;19937;-83
2023/10/19 05:50:02;;;;;;;;;;;11.00;50.10;;;9.66;53.79;99790.31;12248971;19;19939;-83
2023/10/19 05:54:04;;;;;;;;;;;11.00;50.10;;;9.59;53.84;99776.03;12259868;19;19917;-84
2023/10/19 05:58:06;;;;;;;;;;;10.90;50.30;;;9.56;53.79;99773.63;12252057;19;20377;-84
2023/10/19 06:02:07;;;;;;;;;;;11.10;50.20;;;9.67;53.75;99785.03;12258620;19;19911;-84
2023/10/19 06:06:09;;;;;;;;;;;10.90;50.30;;;9.62;53.86;99792.31;12247850;19;19911;-84
2023/10/19 06:10:22;;;;;;;;;;;11.00;50.30;;;9.69;53.75;99806.63;12242282;19;20277;-83
2023/10/19 06:14:23;;;;;;;;;;;11.00;50.20;;;9.47;53.75;99770.69;12249198;19;19942;-84
2023/10/19 06:18:25;;;;;;;;;;;11.00;50.30;;;9.72;53.74;99824.66;12234597;19;19919;-84
2023/10/19 06:22:28;;;;;;;;;;;11.00;50.40;;;9.67;53.77;99792.00;12247204;19;19923;-84
2023/10/19 06:26:29;;;;;;;;;;;11.00;50.80;;;9.72;53.82;99779.47;12247581;19;19946;-84
2023/10/19 06:30:31;;;;;;;;;;;11.00;50.40;;;9.59;53.84;99752.59;12245225;19;19921;-84
2023/10/19 06:34:33;;;;;;;;;;;11.00;50.40;;;9.66;53.68;99753.81;12246909;19;19946;-84
2023/10/19 06:38:34;;;;;;;;;;;11.20;50.50;;;9.67;53.78;99760.72;12247590;19;19926;-83
2023/10/19 06:42:35;;;;;;;;;;;11.00;50.80;;;9.68;53.73;99765.00;12248445;19;19926;-84
2023/10/19 06:46:39;;;;;;;;;;;11.00;50.30;;;9.62;53.95;99732.34;12248120;19;19915;-83
2023/10/19 06:50:40;;;;;;;;;;;11.00;50.30;;;9.60;53.66;99726.41;12240968;19;20405;-83
2023/10/19 06:54:42;;;;;;;;;;;11.00;50.40;;;9.57;53.71;99713.59;12247528;19;19926;-83
2023/10/19 06:58:43;;;;;;;;;;;11.00;50.50;;;9.37;53.92;99688.88;12244968;19;20006;-85
2023/10/19 07:02:45;;;;;;;;;;;11.00;50.50;;;9.51;53.89;99700.97;12251085;19;19935;-84
2023/10/19 07:06:47;;;;;;;;;;;10.90;50.50;;;9.41;53.96;99677.28;12241304;19;20238;-83
2023/10/19 07:10:52;;;;;;;;;;;10.90;50.40;;;9.46;53.75;99685.63;12242793;19;19928;-84
2023/10/19 07:14:53;;;;;;;;;;;10.90;50.50;;;9.65;53.86;99716.50;12247248;19;19919;-84
2023/10/19 07:18:55;;;;;;;;;;;10.90;50.60;;;9.55;53.95;99688.56;12249142;19;19953;-83
2023/10/19 07:23:17;;;;;;;;;;;10.90;50.50;;;9.35;54.09;99664.69;12241148;19;20341;-88
2023/10/19 07:27:19;;;;;;;;;;;10.90;50.70;;;9.56;53.88;99683.25;12251668;19;19933;-83
2023/10/19 07:31:21;;;;;;;;;;;11.00;50.60;;;9.60;54.00;99671.66;12254635;19;19915;-84
2023/10/19 07:35:25;;;;;;;;;;;11.00;51.00;;;9.69;53.83;99686.69;12251308;19;19925;-83
2023/10/19 07:39:29;;;;;;;;;;;11.00;50.70;;;9.67;53.94;99700.78;12249824;19;19947;-85
2023/10/19 07:43:31;;;;;;;;;;;11.00;50.80;;;9.54;53.75;99677.31;12260031;19;19926;-84
2023/10/19 07:47:33;;;;;;;;;;;11.00;50.80;;;9.68;53.89;99692.84;12227636;19;19927;-84
2023/10/19 07:51:34;;;;;;;;;;;11.00;50.70;;;9.67;54.13;99699.00;12249336;19;19956;-84
2023/10/19 07:55:37;;;;;;;;;;;11.00;50.60;;;9.77;53.98;99706.19;12245554;19;19978;-84
2023/10/19 07:59:39;;;;;;;;;;;11.00;50.60;;;9.84;54.00;99712.66;12239572;19;20730;-84
2023/10/19 08:03:40;;;;;;;;;;;11.10;50.80;;;9.77;54.06;99690.53;12242003;19;19926;-84
2023/10/19 08:07:42;;;;;;;;;;;11.10;50.70;;;9.79;54.03;99701.69;12240837;19;20022;-83
2023/10/19 08:11:45;;;;;;;;;;;11.10;50.70;;;9.87;54.06;99702.84;12243127;19;19930;-82
2023/10/19 08:15:47;;;;;;;;;;;11.20;50.70;;;9.82;54.02;99691.06;12246944;19;19911;-83
2023/10/19 08:19:49;;;;;;;;;;;11.20;51.10;;;9.80;54.05;99677.28;12245409;19;19982;-83
2023/10/19 08:23:51;;;;;;;;;;;11.20;50.90;;;9.95;54.09;99694.50;12246287;19;19919;-82
2023/10/19 08:27:56;;;;;;;;;;;11.30;50.90;;;10.01;54.00;99690.63;12244025;19;19922;-84
2023/10/19 08:31:57;;;;;;;;;;;11.50;50.90;;;9.80;54.10;99654.66;12244623;19;20478;-83
2023/10/19 08:35:59;;;;;;;;;;;11.30;51.10;;;9.73;54.16;99641.22;12243740;19;19915;-83
2023/10/19 08:40:01;;;;;;;;;;;11.30;51.10;;;10.08;53.98;99697.09;12241375;19;20393;-83
2023/10/19 08:44:10;;;;;;;;;;;11.40;51.00;;;9.82;54.14;99628.47;12239928;19;19951;-83
2023/10/19 08:48:11;;;;;;;;;;;11.40;50.80;;;10.14;54.01;99658.34;12239709;19;19914;-84
2023/10/19 08:52:15;;;;;;;;;;;11.50;51.00;;;10.22;54.17;99647.38;12243448;19;19911;-83
2023/10/19 08:56:16;;;;;;;;;;;11.60;50.90;;;10.29;53.98;99648.66;12251536;19;19911;-83
2023/10/19 09:00:19;;;;;;;;;;;11.50;50.80;;;10.20;54.23;99634.44;12249721;19;20329;-83
2023/10/19 09:04:20;;;;;;;;;;;11.60;50.80;;;10.23;54.13;99622.94;12253515;19;20275;-83
2023/10/19 09:08:22;;;;;;;;;;;11.60;51.20;;;10.33;54.18;99644.03;12238999;19;20420;-83
2023/10/19 09:12:23;;;;;;;;;;;11.70;51.30;;;10.28;54.22;99622.66;12250747;19;19932;-83
2023/10/19 09:16:26;;;;;;;;;;;11.70;51.00;;;10.45;54.27;99643.16;12250611;19;19946;-83
2023/10/19 09:20:27;;;;;;;;;;;11.80;51.00;;;10.36;54.05;99617.72;12247042;19;20266;-83
2023/10/19 09:24:29;;;;;;;;;;;11.80;51.20;;;10.46;54.12;99630.94;12259410;19;19922;-85
2023/10/19 09:28:33;;;;;;;;;;;11.80;51.20;;;10.54;54.20;99626.81;12255974;19;19922;-85
2023/10/19 09:32:35;;;;;;;;;;;11.90;51.00;;;10.49;54.34;99618.50;12252153;19;19928;-84
2023/10/19 09:36:38;;;;;;;;;;;11.90;51.20;;;10.37;54.11;99603.75;12250405;19;19978;-85
2023/10/19 09:40:39;;;;;;;;;;;11.90;51.20;;;10.62;54.19;99621.88;12247064;19;19957;-84
2023/10/19 09:44:43;;;;;;;;;;;12.00;51.40;;;10.69;54.26;99621.41;12256481;19;19918;-86
2023/10/19 09:48:47;;;;;;;;;;;12.00;51.10;;;10.55;54.33;99594.53;12252907;19;20015;-85
2023/10/19 09:52:49;;;;;;;;;;;12.00;51.10;;;10.68;54.33;99602.31;12255236;19;20262;-84
2023/10/19 09:57:01;;;;;;;;;;;12.00;51.10;;;10.73;54.40;99600.19;12250132;19;19926;-84
2023/10/19 10:01:03;;;;;;;;;;;12.10;51.40;;;10.83;54.18;99616.03;12247031;19;19923;-84
2023/10/19 10:05:04;;;;;;;;;;;12.10;51.10;;;10.81;54.33;99608.31;12251717;19;19926;-84
2023/10/19 10:09:11;;;;;;;;;;;12.10;51.10;;;10.85;54.46;99611.50;12250629;19;19926;-85
2023/10/19 10:13:30;;;;;;;;;;;12.20;51.40;;;10.92;54.28;99610.13;12250076;19;20252;-84
2023/10/19 10:17:37;;;;;;;;;;;12.20;51.60;;;10.87;54.30;99595.75;12251012;19;19918;-84
2023/10/19 10:21:38;;;;;;;;;;;12.20;51.90;;;10.84;54.28;99588.97;12247151;19;19944;-85
2023/10/19 10:25:39;;;;;;;;;;;12.20;51.50;;;10.90;54.37;99598.94;12251612;19;19922;-85
2023/10/19 10:29:58;;;;;;;;;;;12.30;51.40;;;10.88;54.26;99592.16;12244591;19;19930;-86
2023/10/19 10:34:00;;;;;;;;;;;12.30;51.20;;;10.93;54.25;99597.88;12255875;19;19923;-86
2023/10/19 10:38:02;;;;;;;;;;;12.30;51.20;;;10.99;54.21;99594.81;12256774;19;19923;-84
2023/10/19 10:42:06;;;;;;;;;;;12.30;51.10;;;11.01;54.25;99598.13;12259772;19;19911;-83
2023/10/19 10:46:07;;;;;;;;;;;12.30;51.70;;;10.99;54.42;99584.34;12257674;19;20337;-86
2023/10/19 10:50:10;;;;;;;;;;;12.30;50.90;;;10.96;54.17;99582.81;12252676;19;19919;-86
2023/10/19 10:54:13;;;;;;;;;;;12.30;51.10;;;10.90;54.36;99580.66;12252487;19;19934;-83
2023/10/19 10:58:16;;;;;;;;;;;12.30;51.20;;;11.00;54.23;99580.81;12250134;19;19953;-84
2023/10/19 11:02:18;;;;;;;;;;;12.30;51.20;;;10.88;54.07;99555.59;12250652;19;19923;-85
2023/10/19 11:06:20;;;;;;;;;;;12.30;51.20;;;10.90;54.40;99567.59;12251538;19;19946;-84
2023/10/19 11:10:28;;;;;;;;;;;12.30;51.30;;;10.91;54.25;99558.84;12247025;19;19922;-83
2023/10/19 11:14:30;;;;;;;;;;;12.30;51.40;;;10.78;54.37;99539.81;12249438;19;20265;-85
2023/10/19 11:18:32;;;;;;;;;;;12.20;51.30;;;10.97;54.38;99575.81;12248251;19;19919;-84
2023/10/19 11:22:47;;;;;;;;;;;12.20;51.30;;;10.92;54.42;99568.31;12249547;19;19927;-84
2023/10/19 11:26:48;;;;;;;;;;;12.20;51.50;;;10.84;54.31;99541.94;12247792;19;20327;-84
2023/10/19 11:30:50;;;;;;;;;;;12.20;51.80;;;10.83;54.19;99528.06;12245148;19;19926;-84
2023/10/19 11:34:53;;;;;;;;;;;12.20;51.70;;;10.84;54.31;99526.28;12249111;19;19915;-84
2023/10/19 11:38:55;;;;;;;;;;;12.10;51.70;;;10.84;54.29;99521.88;12247931;19;19918;-84
2023/10/19 11:42:56;;;;;;;;;;;12.20;52.20;;;10.92;54.29;99520.47;12248985;19;19919;-84
2023/10/19 11:46:57;;;;;;;;;;;12.10;52.10;;;10.99;54.31;99526.88;12247782;19;19918;-84
2023/10/19 11:51:00;;;;;;;;;;;12.10;52.00;;;10.92;54.24;99513.47;12242980;19;19927;-84
2023/10/19 11:55:02;;;;;;;;;;;12.20;51.80;;;11.03;54.24;99521.31;12247728;19;20267;-84
2023/10/19 11:59:04;;;;;;;;;;;12.20;52.20;;;11.04;54.49;99525.63;12245419;19;19926;-84
2023/10/19 12:03:06;;;;;;;;;;;12.20;51.80;;;10.94;54.18;99497.69;12247128;19;19914;-84
2023/10/19 12:07:09;;;;;;;;;;;12.30;52.40;;;11.00;54.51;99505.88;12246578;19;20312;-84
2023/10/19 12:11:19;;;;;;;;;;;12.30;51.90;;;10.95;54.41;99497.56;12246849;19;19922;-84
2023/10/19 12:15:22;;;;;;;;;;;12.30;51.90;;;11.02;54.35;99501.38;12244568;19;19951;-84
2023/10/19 12:19:25;;;;;;;;;;;12.30;51.90;;;11.01;54.41;99501.47;12240175;19;19930;-84
2023/10/19 12:23:26;;;;;;;;;;;12.30;51.80;;;11.04;54.43;99507.31;12245022;19;20304;-84
2023/10/19 12:27:28;;;;;;;;;;;12.30;51.90;;;11.14;54.61;99510.03;12240973;19;19926;-84
2023/10/19 12:31:30;;;;;;;;;;;12.30;51.90;;;11.12;54.51;99503.28;12247016;19;19915;-84
2023/10/19 12:39:52;;;;;;;;;;;12.40;51.90;;;11.13;54.42;99494.50;12243790;19;19918;-84
2023/10/19 12:44:08;;;;;;;;;;;12.40;51.90;;;11.14;54.61;99493.53;12242724;19;19910;-84
2023/10/19 12:48:10;;;;;;;;;;;12.40;52.00;;;11.14;54.41;99498.78;12243522;19;20325;-84
2023/10/19 12:52:12;;;;;;;;;;;12.40;52.10;;;10.96;54.61;99461.81;12241008;19;20659;-84
2023/10/19 12:56:14;;;;;;;;;;;12.40;52.00;;;11.13;54.49;99492.72;12245901;19;19963;-85
2023/10/19 13:00:25;;;;;;;;;;;12.40;52.30;;;10.99;54.43;99469.41;12241285;19;19926;-84
2023/10/19 13:04:30;;;;;;;;;;;12.40;52.10;;;11.13;54.48;99497.94;12242916;19;19978;-84
2023/10/19 13:08:32;;;;;;;;;;;12.40;52.50;;;11.04;54.66;99496.88;12238534;19;19926;-84
2023/10/19 13:12:33;;;;;;;;;;;12.30;52.10;;;10.83;54.55;99460.16;12243278;19;19930;-84
2023/10/19 13:16:35;;;;;;;;;;;12.30;52.00;;;11.03;54.54;99497.81;12242594;19;20337;-84
2023/10/19 13:20:37;;;;;;;;;;;12.40;52.30;;;10.99;54.73;99491.16;12240522;19;19994;-84
2023/10/19 13:24:42;;;;;;;;;;;12.30;52.20;;;11.08;54.58;99505.31;12244455;19;19919;-84
2023/10/19 13:28:44;;;;;;;;;;;12.30;52.30;;;11.00;54.66;99489.38;12241672;19;19957;-84
2023/10/19 13:32:46;;;;;;;;;;;12.20;52.20;;;11.08;54.59;99510.53;12242736;19;20253;-84
2023/10/19 13:36:49;;;;;;;;;;;12.30;52.50;;;10.94;54.64;99475.03;12240982;19;19915;-84
2023/10/19 13:40:51;;;;;;;;;;;12.30;53.20;;;11.03;54.52;99483.91;12252129;19;20326;-83
2023/10/19 13:44:53;;;;;;;;;;;12.20;52.50;;;11.01;54.72;99483.19;12259024;19;19921;-84
2023/10/19 13:48:55;;;;;;;;;;;12.20;52.40;;;11.01;54.59;99472.75;12252883;19;19914;-83
2023/10/19 13:52:57;;;;;;;;;;;12.20;52.50;;;10.88;54.58;99454.56;12263441;19;19923;-82
2023/10/19 13:56:58;;;;;;;;;;;12.20;52.30;;;10.88;54.76;99457.19;12263207;19;20396;-81
2023/10/19 14:01:00;;;;;;;;;;;12.20;52.70;;;11.03;54.62;99482.13;12260314;19;19961;-82
2023/10/19 14:05:01;;;;;;;;;;;12.20;52.90;;;10.92;54.60;99458.63;12262529;19;19919;-84
2023/10/19 14:09:05;;;;;;;;;;;12.20;52.30;;;10.99;54.78;99469.41;12264172;19;20007;-82
2023/10/19 14:13:06;;;;;;;;;;;12.20;52.70;;;10.97;54.84;99469.56;12262506;19;19962;-83
2023/10/19 14:17:07;;;;;;;;;;;12.20;52.50;;;11.03;54.79;99476.91;12260563;19;20408;-83
2023/10/19 14:21:15;;;;;;;;;;;12.20;52.60;;;11.05;54.65;99475.03;12257967;19;19907;-82
2023/10/19 14:25:16;;;;;;;;;;;12.20;52.60;;;11.05;54.91;99469.78;12261365;19;20332;-83
2023/10/19 14:29:17;;;;;;;;;;;12.20;52.70;;;11.01;54.85;99467.53;12261349;19;19923;-83
2023/10/19 14:33:19;;;;;;;;;;;12.20;52.90;;;11.03;54.69;99466.47;12259567;19;19923;-82
2023/10/19 14:37:20;;;;;;;;;;;12.30;53.20;;;11.02;54.93;99453.53;12252457;19;19922;-83
2023/10/19 14:41:22;;;;;;;;;;;12.30;52.80;;;11.07;54.88;99453.97;12224771;19;19915;-82
2023/10/19 14:45:30;;;;;;;;;;;12.30;53.10;;;11.05;54.90;99443.66;12261143;19;19918;-82
2023/10/19 14:49:32;;;;;;;;;;;12.30;53.00;;;10.98;54.74;99426.81;12248137;19;19943;-82
2023/10/19 14:53:34;;;;;;;;;;;12.20;52.70;;;10.83;54.79;99401.91;12256513;19;20330;-82
2023/10/19 14:57:39;;;;;;;;;;;12.30;52.60;;;11.07;54.75;99452.22;12259644;19;19919;-82
2023/10/19 15:01:40;;;;;;;;;;;12.30;52.60;;;10.97;54.94;99430.38;12256497;19;19923;-82
2023/10/19 15:05:43;;;;;;;;;;;12.20;53.60;;;11.00;54.93;99432.75;12258679;19;20397;-84
2023/10/19 15:09:44;;;;;;;;;;;12.30;53.00;;;10.98;54.97;99425.97;12254905;19;19922;-82
2023/10/19 15:13:46;;;;;;;;;;;12.20;52.90;;;11.05;54.96;99438.44;12257929;19;19946;-82
2023/10/19 15:17:47;;;;;;;;;;;12.30;53.20;;;11.02;54.96;99449.13;12255663;19;19918;-82
2023/10/19 15:21:49;;;;;;;;;;;12.20;52.80;;;10.99;54.84;99453.75;12247743;19;19911;-83
2023/10/19 15:25:51;;;;;;;;;;;12.20;53.00;;;10.97;55.01;99442.59;12243944;19;19919;-83
2023/10/19 15:29:52;;;;;;;;;;;12.20;53.10;;;10.95;55.00;99439.28;12248581;19;19935;-83
2023/10/19 15:33:54;;;;;;;;;;;12.20;53.30;;;10.92;54.99;99442.13;12247527;19;19918;-83
2023/10/19 15:37:56;;;;;;;;;;;12.20;52.90;;;10.91;54.86;99440.44;12250662;19;19926;-83
2023/10/19 15:41:57;;;;;;;;;;;12.20;53.30;;;10.98;54.94;99447.69;12248960;19;20345;-83
2023/10/19 15:46:02;;;;;;;;;;;12.20;53.10;;;10.95;55.11;99437.50;12250179;19;19922;-84
2023/10/19 15:50:04;;;;;;;;;;;12.20;53.80;;;10.99;55.09;99440.69;12245181;19;19915;-83
2023/10/19 15:54:06;;;;;;;;;;;12.20;53.90;;;10.93;55.06;99428.94;12248759;19;19915;-83
2023/10/19 15:58:10;;;;;;;;;;;12.20;53.80;;;10.98;54.86;99442.47;12247130;19;19923;-83
2023/10/19 16:02:12;;;;;;;;;;;12.20;53.50;;;10.95;55.02;99431.44;12246573;19;19922;-83
2023/10/19 16:06:15;;;;;;;;;;;12.20;53.40;;;10.98;55.13;99434.63;12245214;19;19971;-83
2023/10/19 16:10:17;;;;;;;;;;;12.20;54.10;;;11.00;55.07;99437.13;12241589;19;19919;-83
2023/10/19 16:14:19;;;;;;;;;;;12.20;53.20;;;10.96;55.08;99427.88;12244248;19;19910;-83
2023/10/19 16:18:21;;;;;;;;;;;12.30;54.00;;;10.91;55.15;99415.19;12241683;19;20267;-83
2023/10/19 16:22:23;;;;;;;;;;;12.20;53.50;;;11.00;55.01;99429.31;12246579;19;20635;-83
2023/10/19 16:26:24;;;;;;;;;;;12.20;53.40;;;10.98;55.03;99429.41;12243560;19;19927;-84
2023/10/19 16:30:31;;;;;;;;;;;12.20;53.10;;;10.91;55.07;99417.81;12241942;19;19978;-82
2023/10/19 16:34:32;;;;;;;;;;;12.20;53.60;;;10.83;55.19;99413.16;12239840;19;19939;-82
2023/10/19 16:38:34;;;;;;;;;;;12.20;53.30;;;10.92;55.29;99432.50;12243762;19;19915;-84
2023/10/19 16:42:36;;;;;;;;;;;12.10;53.60;;;10.88;55.18;99419.78;12238185;19;19922;-82
2023/10/19 16:46:38;;;;;;;;;;;12.10;53.80;;;10.88;55.31;99415.41;12249699;19;19931;-83
2023/10/19 16:50:40;;;;;;;;;;;12.10;54.00;;;10.92;55.25;99418.63;12247221;19;19982;-83
2023/10/19 16:54:43;;;;;;;;;;;12.10;53.60;;;10.96;55.40;99433.91;12248313;19;19915;-83
2023/10/19 16:58:44;;;;;;;;;;;12.10;53.40;;;10.95;55.27;99427.03;12247587;19;20327;-83
2023/10/19 17:02:45;;;;;;;;;;;12.20;53.50;;;10.97;55.17;99427.75;12246874;19;19922;-82
2023/10/19 17:06:47;;;;;;;;;;;12.10;53.70;;;10.92;55.10;99410.78;12246467;19;20345;-83
2023/10/19 17:10:48;;;;;;;;;;;12.20;54.30;;;10.95;55.36;99416.59;12243615;19;19947;-82
2023/10/19 17:14:49;;;;;;;;;;;12.10;53.70;;;10.72;55.32;99384.44;12257854;19;19935;-83
2023/10/19 17:18:51;;;;;;;;;;;12.10;54.50;;;10.90;55.29;99408.28;12257683;19;19911;-82
2023/10/19 17:22:53;;;;;;;;;;;12.10;53.90;;;10.80;55.53;99389.91;12260566;19;19918;-82
2023/10/19 17:26:55;;;;;;;;;;;12.10;53.70;;;10.94;55.37;99404.50;12261684;19;19911;-82
2023/10/19 17:30:57;;;;;;;;;;;12.10;54.00;;;10.96;55.17;99405.19;12258281;19;20663;-83
2023/10/19 17:34:58;;;;;;;;;;;12.10;54.00;;;10.90;55.45;99402.22;12260678;19;19924;-82
2023/10/19 17:39:00;;;;;;;;;;;12.20;54.30;;;10.91;55.41;99409.97;12257881;19;20011;-82
2023/10/19 17:43:02;;;;;;;;;;;12.10;54.20;;;10.94;55.47;99408.91;12260869;19;19918;-82
2023/10/19 17:47:03;;;;;;;;;;;12.10;54.20;;;10.73;55.53;99372.22;12257457;19;19919;-84
2023/10/19 17:51:10;;;;;;;;;;;12.10;54.00;;;10.87;55.39;99387.63;12251028;19;19922;-82
2023/10/19 17:55:11;;;;;;;;;;;12.10;54.00;;;10.93;55.40;99388.94;12262510;19;19911;-82
2023/10/19 17:59:13;;;;;;;;;;;12.10;54.00;;;10.94;55.45;99388.81;12249580;19;19911;-82
2023/10/19 18:03:14;;;;;;;;;;;12.10;53.90;;;10.99;55.56;99394.53;12260102;19;19935;-81
2023/10/19 18:07:17;;;;;;;;;;;12.10;53.70;;;11.01;55.59;99389.16;12256679;19;20342;-82
2023/10/19 18:11:18;;;;;;;;;;;12.20;53.90;;;10.98;55.64;99379.78;12254427;19;20399;-83
2023/10/19 18:15:20;;;;;;;;;;;12.20;54.50;;;10.97;55.44;99362.47;12256272;19;19926;-82
2023/10/19 18:19:22;;;;;;;;;;;12.20;54.30;;;11.00;55.48;99362.22;12252599;19;20334;-81
2023/10/19 18:23:25;;;;;;;;;;;12.20;54.10;;;11.04;55.46;99366.25;12254764;19;19921;-81
2023/10/19 18:27:26;;;;;;;;;;;12.20;54.00;;;11.03;55.50;99371.59;12252870;19;19923;-81
2023/10/19 18:31:27;;;;;;;;;;;12.20;54.60;;;10.94;55.77;99356.66;12257614;19;19919;-81
2023/10/19 18:35:29;;;;;;;;;;;12.20;54.20;;;10.95;55.68;99353.91;12251233;19;19999;-82
2023/10/19 18:39:31;;;;;;;;;;;12.20;54.00;;;10.81;55.64;99347.16;12254908;19;19948;-83
2023/10/19 18:43:33;;;;;;;;;;;12.20;54.40;;;11.04;55.69;99368.88;12256776;19;20376;-82